Terminal Aerodrome Forecast
Issued by NWS Houston/Galveston, TX

Home | Current Version | Previous Version | Text Only | Print | Product List | Glossary On
Versions: 1 2 3 4 5 6 7 8 9 10 11 12 13 14 15 16 17 18 19 20 21 22 23 24
000
FTUS44 KHGX 191907 AAA
TAFCLL
TAF AMD
KCLL 191907Z 1919/2018 21008KT P6SM OVC008
      TEMPO 1919/1923 SCT008 BKN025
     FM192300 20009KT P6SM SCT008 BKN025
     FM200200 19006KT 4SM BR BKN010
     FM200600 19006KT 2SM BR OVC007
      TEMPO 2009/2012 1/2SM FG OVC002
     FM201500 22008KT 4SM BR BKN007 OVC012=

USA.gov is the U.S. government's official web portal to all federal, state and local government web resources and services.